createdAt,value
2018-05-03T00:01:45.826Z,100285
2018-05-03T00:04:13.951Z,100290
2018-05-03T00:06:42.889Z,100289
2018-05-03T00:09:11.030Z,100292
2018-05-03T00:11:39.925Z,100285
2018-05-03T00:14:08.853Z,100288
2018-05-03T00:16:36.999Z,100279
2018-05-03T00:19:05.152Z,100276
2018-05-03T00:21:34.085Z,100270
2018-05-03T00:24:02.224Z,100270
2018-05-03T00:26:30.354Z,100263
2018-05-03T00:28:58.501Z,100266
2018-05-03T00:31:26.638Z,100272
2018-05-03T00:33:54.787Z,100276
2018-05-03T00:36:23.734Z,100279
2018-05-03T00:38:51.878Z,100279
2018-05-03T00:41:20.051Z,100277
2018-05-03T00:43:48.192Z,100286
2018-05-03T00:46:16.331Z,100280
2018-05-03T00:48:44.505Z,100274
2018-05-03T00:51:12.665Z,100274
2018-05-03T00:53:40.816Z,100276
2018-05-03T00:56:08.961Z,100273
2018-05-03T00:58:37.095Z,100263
2018-05-03T01:01:05.255Z,100270
2018-05-03T01:03:33.382Z,100262
2018-05-03T01:06:02.275Z,100268
2018-05-03T01:08:31.189Z,100272
2018-05-03T01:10:59.321Z,100286
2018-05-03T01:13:27.479Z,100270
2018-05-03T01:15:56.398Z,100274
2018-05-03T01:18:25.321Z,100273
2018-05-03T01:20:53.449Z,100269
2018-05-03T01:23:21.577Z,100266
2018-05-03T01:25:49.728Z,100266
2018-05-03T01:28:17.875Z,100268
2018-05-03T01:30:46.002Z,100277
2018-05-03T01:33:14.180Z,100273
2018-05-03T01:36:00.160Z,100270
2018-05-03T01:38:28.317Z,100274
2018-05-03T01:40:56.500Z,100280
2018-05-03T01:43:24.720Z,100277
2018-05-03T01:45:52.869Z,100265
2018-05-03T01:48:21.033Z,100263
2018-05-03T01:50:49.268Z,100267
2018-05-03T01:53:17.462Z,100272
2018-05-03T01:55:45.644Z,100272
2018-05-03T01:58:13.768Z,100276
2018-05-03T02:00:42.670Z,100276
2018-05-03T02:03:11.574Z,100283
2018-05-03T02:05:39.712Z,100271
2018-05-03T02:08:08.642Z,100277
2018-05-03T02:10:36.755Z,100281
2018-05-03T02:13:04.907Z,100286
2018-05-03T02:15:33.063Z,100288
2018-05-03T02:18:01.219Z,100288
2018-05-03T02:20:29.365Z,100273
2018-05-03T02:22:58.309Z,100286
2018-05-03T02:25:26.462Z,100282
2018-05-03T02:27:54.604Z,100280
2018-05-03T02:30:23.550Z,100270
2018-05-03T02:32:51.696Z,100284
2018-05-03T02:35:19.854Z,100279
2018-05-03T02:37:48.757Z,100285
2018-05-03T02:40:16.900Z,100289
2018-05-03T02:42:45.851Z,100296
2018-05-03T02:45:13.975Z,100298
2018-05-03T02:47:42.880Z,100301
2018-05-03T02:50:11.017Z,100299
2018-05-03T02:52:39.158Z,100303
2018-05-03T02:55:07.277Z,100300
2018-05-03T02:57:59.748Z,100299
2018-05-03T03:00:51.349Z,100302
2018-05-03T03:03:43.627Z,100304
2018-05-03T03:10:18.687Z,100315
2018-05-03T03:16:58.809Z,100331
2018-05-03T03:20:03.159Z,100335
2018-05-03T03:22:54.924Z,100333
2018-05-03T03:29:09.393Z,100340
2018-05-03T03:32:01.035Z,100349
2018-05-03T03:34:29.819Z,100356
2018-05-03T03:37:16.448Z,100368
2018-05-03T03:40:09.100Z,100354
2018-05-03T03:45:57.402Z,100360
2018-05-03T03:48:25.530Z,100360
2018-05-03T03:50:54.471Z,100358
2018-05-03T03:53:22.684Z,100360
2018-05-03T03:55:50.795Z,100352
2018-05-03T03:58:18.930Z,100352
2018-05-03T04:00:47.072Z,100364
2018-05-03T04:03:15.980Z,100368
2018-05-03T04:05:44.159Z,100374
2018-05-03T04:08:12.426Z,100383
2018-05-03T04:10:40.581Z,100379
2018-05-03T04:13:08.724Z,100377
2018-05-03T04:15:36.877Z,100380
2018-05-03T04:18:23.708Z,100384
2018-05-03T04:21:13.741Z,100383
2018-05-03T04:24:11.470Z,100386
2018-05-03T04:26:39.641Z,100382
2018-05-03T04:29:07.803Z,100374
2018-05-03T04:31:35.978Z,100385
2018-05-03T04:34:04.195Z,100404
2018-05-03T04:36:32.387Z,100398
2018-05-03T04:39:01.475Z,100404
2018-05-03T04:41:29.647Z,100402
2018-05-03T04:43:57.806Z,100415
2018-05-03T04:46:25.941Z,100423
2018-05-03T04:48:54.098Z,100438
2018-05-03T04:51:22.276Z,100412
2018-05-03T04:53:50.441Z,100429
2018-05-03T04:56:19.359Z,100434
2018-05-03T04:58:47.529Z,100432
2018-05-03T05:01:15.746Z,100440
2018-05-03T05:03:43.897Z,100439
2018-05-03T05:06:12.063Z,100445
2018-05-03T05:08:40.224Z,100446
2018-05-03T05:11:08.364Z,100458
2018-05-03T05:13:37.399Z,100448
2018-05-03T05:16:05.546Z,100455
2018-05-03T05:18:33.705Z,100467
2018-05-03T05:21:02.620Z,100448
2018-05-03T05:23:30.802Z,100477
2018-05-03T05:25:59.053Z,100481
2018-05-03T05:28:27.202Z,100488
2018-05-03T05:30:56.119Z,100489
2018-05-03T05:33:24.300Z,100504
2018-05-03T05:35:52.449Z,100502
2018-05-03T05:38:20.591Z,100514
2018-05-03T05:40:48.757Z,100505
2018-05-03T05:43:16.924Z,100505
2018-05-03T05:45:45.116Z,100521
2018-05-03T05:48:13.251Z,100514
2018-05-03T05:50:41.389Z,100517
2018-05-03T05:53:09.571Z,100528
2018-05-03T05:55:37.705Z,100519
2018-05-03T05:58:05.862Z,100516
2018-05-03T06:00:33.998Z,100527
2018-05-03T06:03:02.246Z,100523
2018-05-03T06:05:31.191Z,100519
2018-05-03T06:07:59.336Z,100519
2018-05-03T06:10:27.547Z,100528
2018-05-03T06:12:56.384Z,100524
2018-05-03T06:15:24.561Z,100536
2018-05-03T06:17:52.704Z,100539
2018-05-03T06:20:21.615Z,100555
2018-05-03T06:22:49.782Z,100548
2018-05-03T06:25:18.691Z,100563
2018-05-03T06:27:46.841Z,100553
2018-05-03T06:30:15.760Z,100566
2018-05-03T06:32:44.029Z,100564
2018-05-03T06:35:12.229Z,100573
2018-05-03T06:37:40.460Z,100570
2018-05-03T06:40:09.375Z,100573
2018-05-03T06:42:37.509Z,100578
2018-05-03T06:45:06.436Z,100580
2018-05-03T06:47:34.575Z,100590
2018-05-03T06:50:03.474Z,100573
2018-05-03T06:52:32.414Z,100603
2018-05-03T06:55:00.566Z,100608
2018-05-03T06:57:28.692Z,100606
2018-05-03T06:59:56.814Z,100601
2018-05-03T07:02:25.238Z,100623
2018-05-03T07:04:53.366Z,100625
2018-05-03T07:07:21.498Z,100635
2018-05-03T07:09:50.440Z,100636
2018-05-03T07:12:18.621Z,100638
2018-05-03T07:14:47.793Z,100646
2018-05-03T07:17:15.951Z,100654
2018-05-03T07:19:44.147Z,100660
2018-05-03T07:22:12.529Z,100654
2018-05-03T07:24:41.458Z,100659
2018-05-03T07:27:09.618Z,100668
2018-05-03T07:29:37.755Z,100672
2018-05-03T07:32:05.902Z,100673
2018-05-03T07:34:34.552Z,100684
2018-05-03T07:37:03.471Z,100686
2018-05-03T07:39:32.375Z,100691
2018-05-03T07:42:00.511Z,100696
2018-05-03T07:44:28.641Z,100694
2018-05-03T07:46:56.803Z,100707
2018-05-03T07:49:24.962Z,100715
2018-05-03T07:51:53.104Z,100721
2018-05-03T07:54:21.253Z,100724
2018-05-03T07:56:49.402Z,100725
2018-05-03T07:59:17.537Z,100737
2018-05-03T08:01:46.447Z,100738
2018-05-03T08:04:15.962Z,100743
2018-05-03T08:06:44.143Z,100752
2018-05-03T08:09:12.332Z,100746
2018-05-03T08:11:40.540Z,100764
2018-05-03T08:14:09.476Z,100747
2018-05-03T08:16:37.622Z,100767
2018-05-03T08:19:05.860Z,100762
2018-05-03T08:21:33.989Z,100767
2018-05-03T08:24:02.159Z,100780
2018-05-03T08:26:31.191Z,100787
2018-05-03T08:28:59.346Z,100786
2018-05-03T08:31:28.391Z,100780
2018-05-03T08:33:56.521Z,100797
2018-05-03T08:36:24.676Z,100784
2018-05-03T08:38:52.813Z,100790
2018-05-03T08:41:21.814Z,100803
2018-05-03T08:43:49.896Z,100816
2018-05-03T08:46:18.075Z,100801
2018-05-03T08:48:46.209Z,100801
2018-05-03T08:51:15.168Z,100803
2018-05-03T08:53:43.306Z,100813
2018-05-03T08:56:11.548Z,100819
2018-05-03T08:58:39.715Z,100820
2018-05-03T09:01:08.694Z,100821
2018-05-03T09:03:37.004Z,100812
2018-05-03T09:06:05.136Z,100825
2018-05-03T09:08:33.309Z,100829
2018-05-03T09:11:01.582Z,100826
2018-05-03T09:13:29.930Z,100833
2018-05-03T09:15:58.179Z,100829
2018-05-03T09:18:26.351Z,100822
2018-05-03T09:20:54.517Z,100834
2018-05-03T09:23:22.667Z,100845
2018-05-03T09:25:50.807Z,100848
2018-05-03T09:28:18.951Z,100851
2018-05-03T09:30:47.110Z,100847
2018-05-03T09:33:15.251Z,100858
2018-05-03T09:35:43.408Z,100853
2018-05-03T09:38:11.886Z,100864
2018-05-03T09:40:40.291Z,100876
2018-05-03T09:43:09.242Z,100866
2018-05-03T09:45:37.359Z,100871
2018-05-03T09:48:06.246Z,100869
2018-05-03T09:50:35.157Z,100871
2018-05-03T09:53:03.284Z,100880
2018-05-03T09:55:31.434Z,100880
2018-05-03T09:57:59.557Z,100888
2018-05-03T10:00:27.722Z,100890
2018-05-03T10:02:56.624Z,100894
2018-05-03T10:05:25.613Z,100891
2018-05-03T10:07:53.738Z,100896
2018-05-03T10:10:21.895Z,100902
2018-05-03T10:12:50.066Z,100899
2018-05-03T10:15:18.281Z,100905
2018-05-03T10:17:47.256Z,100912
2018-05-03T10:20:15.454Z,100922
2018-05-03T10:22:43.601Z,100900
2018-05-03T10:25:11.756Z,100910
2018-05-03T10:27:39.902Z,100910
2018-05-03T10:30:08.044Z,100910
2018-05-03T10:32:37.829Z,100905
2018-05-03T10:35:05.971Z,100920
2018-05-03T10:37:34.140Z,100923
2018-05-03T10:40:02.317Z,100919
2018-05-03T10:42:30.454Z,100929
2018-05-03T10:44:59.370Z,100921
2018-05-03T10:47:27.581Z,100918
2018-05-03T10:49:55.720Z,100928
2018-05-03T10:52:23.850Z,100928
2018-05-03T10:54:52.061Z,100925
2018-05-03T10:57:21.287Z,100930
2018-05-03T10:59:49.424Z,100930
2018-05-03T11:02:17.589Z,100942
2018-05-03T11:04:46.480Z,100935
2018-05-03T11:07:15.380Z,100941
2018-05-03T11:09:43.534Z,100948
2018-05-03T11:12:12.436Z,100960
2018-05-03T11:14:40.597Z,100963
2018-05-03T11:17:09.516Z,100952
2018-05-03T11:19:37.660Z,100965
2018-05-03T11:22:06.574Z,100966
2018-05-03T11:24:34.749Z,100968
2018-05-03T11:27:02.876Z,100978
2018-05-03T11:29:31.029Z,100985
2018-05-03T11:31:59.338Z,100968
2018-05-03T11:34:28.305Z,100973
2018-05-03T11:36:56.553Z,100978
2018-05-03T11:39:24.725Z,100977
2018-05-03T11:41:52.930Z,100967
2018-05-03T11:44:21.974Z,100977
2018-05-03T11:46:50.123Z,100984
2018-05-03T11:49:19.036Z,100998
2018-05-03T11:51:47.181Z,100985
2018-05-03T11:54:16.109Z,100996
2018-05-03T11:56:44.526Z,100999
2018-05-03T11:59:12.715Z,100992
2018-05-03T12:01:40.850Z,101001
2018-05-03T12:04:09.013Z,101004
2018-05-03T12:06:37.845Z,101002
2018-05-03T12:09:05.990Z,101009
2018-05-03T12:11:34.148Z,101014
2018-05-03T12:14:02.587Z,101025
2018-05-03T12:16:31.570Z,101014
2018-05-03T12:19:00.490Z,101013
2018-05-03T12:21:28.637Z,101010
2018-05-03T12:23:56.767Z,101008
2018-05-03T12:26:24.933Z,101010
2018-05-03T12:28:53.069Z,101027
2018-05-03T12:31:21.384Z,101019
2018-05-03T12:33:49.548Z,101004
2018-05-03T12:36:18.144Z,101014
2018-05-03T12:38:46.268Z,101002
2018-05-03T12:41:15.169Z,101011
2018-05-03T12:43:43.314Z,101021
2018-05-03T12:46:11.501Z,101013
2018-05-03T12:48:39.723Z,101007
2018-05-03T12:51:07.890Z,101028
2018-05-03T12:53:36.725Z,101025
2018-05-03T12:56:05.155Z,101028
2018-05-03T12:58:33.280Z,101022
2018-05-03T13:01:07.418Z,101032
2018-05-03T13:03:57.420Z,101040
2018-05-03T13:09:47.780Z,100914
2018-05-03T13:12:17.033Z,101029
2018-05-03T13:14:45.245Z,101043
2018-05-03T13:17:16.351Z,101042
2018-05-03T13:20:30.347Z,101034
2018-05-03T13:23:10.068Z,101050
2018-05-03T13:36:30.126Z,101037
2018-05-03T13:38:58.246Z,101036
2018-05-03T13:41:28.471Z,101047
2018-05-03T13:43:56.619Z,101040
2018-05-03T13:46:24.807Z,101039
2018-05-03T13:48:53.001Z,101035
2018-05-03T13:51:21.154Z,101031
2018-05-03T13:53:49.327Z,101031
2018-05-03T13:56:18.176Z,101036
2018-05-03T13:58:47.106Z,101034
2018-05-03T14:01:15.244Z,101040
2018-05-03T14:03:44.929Z,101044
2018-05-03T14:06:14.167Z,101036
2018-05-03T14:08:48.051Z,101045
2018-05-03T14:11:21.011Z,101033
2018-05-03T14:13:53.491Z,101045
2018-05-03T14:16:30.955Z,101050
2018-05-03T14:19:08.379Z,101047
2018-05-03T14:21:52.906Z,101055
2018-05-03T14:24:39.484Z,101050
2018-05-03T14:37:32.898Z,101060
2018-05-03T14:58:27.104Z,101076
2018-05-03T15:00:56.900Z,101064
2018-05-03T15:06:30.424Z,101086
2018-05-03T15:13:15.663Z,101074
2018-05-03T16:38:55.683Z,101147
2018-05-03T17:07:07.256Z,101167
2018-05-03T17:25:28.292Z,101187
2018-05-03T17:27:56.554Z,101184
2018-05-03T17:30:24.701Z,101183
2018-05-03T17:32:53.241Z,101186
2018-05-03T17:35:22.326Z,101193
2018-05-03T17:38:07.654Z,101199
2018-05-03T17:40:35.812Z,101208
2018-05-03T17:43:03.995Z,101205
2018-05-03T17:45:32.911Z,101217
2018-05-03T17:48:01.105Z,101219
2018-05-03T17:50:30.270Z,101218
2018-05-03T17:52:58.615Z,101228
2018-05-03T17:55:27.874Z,101220
2018-05-03T17:57:56.092Z,101227
2018-05-03T18:00:25.063Z,101240
2018-05-03T18:02:53.232Z,101240
2018-05-03T18:05:21.365Z,101240
2018-05-03T18:07:49.539Z,101251
2018-05-03T18:10:17.767Z,101242
2018-05-03T18:12:46.052Z,101250
2018-05-03T18:15:14.962Z,101257
2018-05-03T18:17:43.106Z,101265
2018-05-03T18:20:12.015Z,101254
2018-05-03T18:22:40.147Z,101262
2018-05-03T18:25:08.270Z,101264
2018-05-03T18:27:36.448Z,101269
2018-05-03T18:30:04.782Z,101272
2018-05-03T18:32:33.857Z,101274
2018-05-03T18:35:02.103Z,101278
2018-05-03T18:37:30.376Z,101287
2018-05-03T18:39:58.551Z,101287
2018-05-03T18:42:26.707Z,101295
2018-05-03T18:44:54.866Z,101298
2018-05-03T18:47:23.061Z,101306
2018-05-03T18:49:51.289Z,101308
2018-05-03T18:52:19.373Z,101317
2018-05-03T18:54:48.295Z,101323
2018-05-03T18:57:16.456Z,101322
2018-05-03T18:59:44.638Z,101329
2018-05-03T19:02:12.803Z,101334
2018-05-03T19:04:41.188Z,101330
2018-05-03T19:07:09.373Z,101334
2018-05-03T19:09:37.879Z,101341
2018-05-03T19:12:06.060Z,101346
2018-05-03T19:14:34.293Z,101339
2018-05-03T19:17:02.412Z,101341
2018-05-03T19:19:30.562Z,101351
2018-05-03T19:21:59.485Z,101356
2018-05-03T19:24:27.650Z,101358
2018-05-03T19:26:55.794Z,101368
2018-05-03T19:29:24.130Z,101368
2018-05-03T19:31:52.400Z,101366
2018-05-03T19:34:20.709Z,101367
2018-05-03T19:36:49.725Z,101373
2018-05-03T19:39:18.022Z,101378
2018-05-03T19:41:46.353Z,101382
2018-05-03T19:44:15.461Z,101380
2018-05-03T19:46:43.949Z,101371
2018-05-03T19:49:14.517Z,101379
2018-05-03T19:51:44.098Z,101380
2018-05-03T19:54:13.001Z,101374
2018-05-03T19:56:41.201Z,101384
2018-05-03T19:59:09.340Z,101376
2018-05-03T20:01:37.514Z,101383
2018-05-03T20:04:05.669Z,101375
2018-05-03T20:06:33.823Z,101386
2018-05-03T20:09:01.997Z,101391
2018-05-03T20:11:30.257Z,101394
2018-05-03T20:13:58.414Z,101397
2018-05-03T20:16:26.565Z,101405
2018-05-03T20:19:00.972Z,101404
2018-05-03T20:21:29.281Z,101417
2018-05-03T20:23:58.225Z,101417
2018-05-03T20:26:26.375Z,101413
2018-05-03T20:28:54.516Z,101404
2018-05-03T20:31:22.677Z,101407
2018-05-03T20:33:50.844Z,101407
2018-05-03T20:36:19.052Z,101400
2018-05-03T20:38:47.342Z,101408
2018-05-03T20:41:16.273Z,101400
2018-05-03T20:43:44.429Z,101406
2018-05-03T20:46:12.764Z,101411
2018-05-03T20:48:40.826Z,101416
2018-05-03T20:51:09.011Z,101421
2018-05-03T20:56:32.613Z,101427
2018-05-03T20:59:00.674Z,101421
2018-05-03T21:01:29.743Z,101425
2018-05-03T21:03:57.967Z,101426
2018-05-03T21:06:27.008Z,101425
2018-05-03T21:08:55.275Z,101430
2018-05-03T21:11:24.206Z,101426
2018-05-03T21:13:52.337Z,101425
2018-05-03T21:16:21.237Z,101426
2018-05-03T21:18:49.444Z,101429
2018-05-03T21:21:17.555Z,101434
2018-05-03T21:23:45.688Z,101430
2018-05-03T21:26:13.933Z,101435
2018-05-03T21:28:41.983Z,101433
2018-05-03T21:31:10.888Z,101442
2018-05-03T21:33:39.812Z,101433
2018-05-03T21:36:08.119Z,101438
2018-05-03T21:38:36.254Z,101435
2018-05-03T21:41:04.412Z,101444
2018-05-03T21:43:32.589Z,101443
2018-05-03T21:46:01.682Z,101489
2018-05-03T21:48:29.809Z,101447
2018-05-03T21:50:57.957Z,101448
2018-05-03T21:53:26.322Z,101450
2018-05-03T21:55:54.458Z,101453
2018-05-03T21:58:23.381Z,101447
2018-05-03T22:00:51.518Z,101458
2018-05-03T22:03:20.414Z,101451
2018-05-03T22:05:48.565Z,101457
2018-05-03T22:08:16.694Z,101446
2018-05-03T22:10:44.936Z,101447
2018-05-03T22:13:13.149Z,101450
2018-05-03T22:15:41.325Z,101451
2018-05-03T22:18:09.486Z,101459
2018-05-03T22:20:37.646Z,101463
2018-05-03T22:23:06.130Z,101458
2018-05-03T22:25:34.497Z,101463
2018-05-03T22:28:02.643Z,101463
2018-05-03T22:30:31.557Z,101464
2018-05-03T22:32:59.721Z,101462
2018-05-03T22:35:27.861Z,101465
2018-05-03T22:37:55.991Z,101468
2018-05-03T22:40:24.150Z,101469
2018-05-03T22:42:52.345Z,101463
2018-05-03T22:45:20.461Z,101468
2018-05-03T22:47:49.421Z,101469
2018-05-03T22:50:17.585Z,101458
2018-05-03T22:52:45.771Z,101466
2018-05-03T22:55:13.904Z,101463
2018-05-03T22:57:42.152Z,101465
2018-05-03T23:00:11.050Z,101457
2018-05-03T23:02:39.207Z,101471
2018-05-03T23:05:08.109Z,101467
2018-05-03T23:07:37.009Z,101466
2018-05-03T23:10:05.128Z,101474
2018-05-03T23:12:53.195Z,101472
2018-05-03T23:15:22.103Z,101471
2018-05-03T23:17:50.311Z,101468
2018-05-03T23:20:18.430Z,101477
2018-05-03T23:22:46.729Z,101470
2018-05-03T23:25:14.867Z,101472
2018-05-03T23:27:43.003Z,101480
2018-05-03T23:30:11.148Z,101473
2018-05-03T23:32:39.475Z,101486
2018-05-03T23:35:07.601Z,101487
2018-05-03T23:37:35.758Z,101483
2018-05-03T23:40:04.673Z,101483
2018-05-03T23:42:53.097Z,101484
2018-05-03T23:45:21.258Z,101493
2018-05-03T23:47:50.162Z,101503
2018-05-03T23:50:19.058Z,101499
2018-05-03T23:52:57.083Z,101497
2018-05-03T23:55:25.200Z,101489
2018-05-03T23:57:54.122Z,101492
